sensor_id;sensor_type;location;lat;lon;timestamp;P1;durP1;ratioP1;P2;durP2;ratioP2
12556;SDS011;6344;49.932;8.308;2022-12-07T00:01:40;15.90;;;12.13;;
12556;SDS011;6344;49.932;8.308;2022-12-07T00:04:11;14.87;;;11.37;;
12556;SDS011;6344;49.932;8.308;2022-12-07T00:06:39;12.00;;;10.77;;
12556;SDS011;6344;49.932;8.308;2022-12-07T00:09:09;13.57;;;11.87;;
12556;SDS011;6344;49.932;8.308;2022-12-07T00:11:41;14.33;;;9.37;;
12556;SDS011;6344;49.932;8.308;2022-12-07T00:14:12;12.57;;;9.67;;
12556;SDS011;6344;49.932;8.308;2022-12-07T00:16:40;12.27;;;10.93;;
12556;SDS011;6344;49.932;8.308;2022-12-07T00:19:13;15.63;;;11.90;;
12556;SDS011;6344;49.932;8.308;2022-12-07T00:21:44;16.80;;;11.70;;
12556;SDS011;6344;49.932;8.308;2022-12-07T00:24:10;14.07;;;12.10;;
12556;SDS011;6344;49.932;8.308;2022-12-07T00:26:42;14.37;;;11.80;;
12556;SDS011;6344;49.932;8.308;2022-12-07T00:29:15;11.70;;;10.50;;
12556;SDS011;6344;49.932;8.308;2022-12-07T00:31:50;14.63;;;11.90;;
12556;SDS011;6344;49.932;8.308;2022-12-07T00:34:25;17.10;;;12.17;;
12556;SDS011;6344;49.932;8.308;2022-12-07T00:36:58;15.20;;;11.37;;
12556;SDS011;6344;49.932;8.308;2022-12-07T00:39:40;14.57;;;11.07;;
12556;SDS011;6344;49.932;8.308;2022-12-07T00:42:07;14.87;;;12.77;;
12556;SDS011;6344;49.932;8.308;2022-12-07T00:44:34;13.13;;;10.70;;
12556;SDS011;6344;49.932;8.308;2022-12-07T00:47:01;13.40;;;11.30;;
12556;SDS011;6344;49.932;8.308;2022-12-07T00:49:31;13.83;;;11.43;;
12556;SDS011;6344;49.932;8.308;2022-12-07T00:51:59;11.30;;;10.10;;
12556;SDS011;6344;49.932;8.308;2022-12-07T00:54:28;12.87;;;10.97;;
12556;SDS011;6344;49.932;8.308;2022-12-07T00:56:56;16.43;;;11.27;;
12556;SDS011;6344;49.932;8.308;2022-12-07T00:59:23;13.40;;;11.23;;
12556;SDS011;6344;49.932;8.308;2022-12-07T01:01:55;13.07;;;11.27;;
12556;SDS011;6344;49.932;8.308;2022-12-07T01:04:25;15.03;;;10.87;;
12556;SDS011;6344;49.932;8.308;2022-12-07T01:07:02;11.83;;;10.60;;
12556;SDS011;6344;49.932;8.308;2022-12-07T01:09:33;16.10;;;12.70;;
12556;SDS011;6344;49.932;8.308;2022-12-07T01:11:59;15.77;;;11.00;;
12556;SDS011;6344;49.932;8.308;2022-12-07T01:14:27;14.10;;;11.80;;
12556;SDS011;6344;49.932;8.308;2022-12-07T01:16:58;12.20;;;10.90;;
12556;SDS011;6344;49.932;8.308;2022-12-07T01:19:26;12.93;;;11.60;;
12556;SDS011;6344;49.932;8.308;2022-12-07T01:22:00;11.80;;;9.90;;
12556;SDS011;6344;49.932;8.308;2022-12-07T01:24:30;12.10;;;10.20;;
12556;SDS011;6344;49.932;8.308;2022-12-07T01:27:03;12.50;;;10.37;;
12556;SDS011;6344;49.932;8.308;2022-12-07T01:29:31;13.87;;;11.37;;
12556;SDS011;6344;49.932;8.308;2022-12-07T01:31:58;12.43;;;11.07;;
12556;SDS011;6344;49.932;8.308;2022-12-07T01:34:26;11.50;;;10.23;;
12556;SDS011;6344;49.932;8.308;2022-12-07T01:37:03;11.57;;;9.97;;
12556;SDS011;6344;49.932;8.308;2022-12-07T01:39:38;15.57;;;10.63;;
12556;SDS011;6344;49.932;8.308;2022-12-07T01:42:13;12.27;;;10.97;;
12556;SDS011;6344;49.932;8.308;2022-12-07T01:48:08;13.00;;;11.10;;
12556;SDS011;6344;49.932;8.308;2022-12-07T01:50:39;15.03;;;11.70;;
12556;SDS011;6344;49.932;8.308;2022-12-07T01:53:09;12.63;;;10.17;;
12556;SDS011;6344;49.932;8.308;2022-12-07T01:55:41;12.20;;;10.30;;
12556;SDS011;6344;49.932;8.308;2022-12-07T01:58:10;12.63;;;11.33;;
12556;SDS011;6344;49.932;8.308;2022-12-07T02:00:40;15.60;;;11.03;;
12556;SDS011;6344;49.932;8.308;2022-12-07T02:03:08;12.30;;;11.00;;
12556;SDS011;6344;49.932;8.308;2022-12-07T02:05:42;15.10;;;10.20;;
12556;SDS011;6344;49.932;8.308;2022-12-07T02:08:13;14.30;;;10.40;;
12556;SDS011;6344;49.932;8.308;2022-12-07T02:10:43;13.27;;;10.93;;
12556;SDS011;6344;49.932;8.308;2022-12-07T02:13:13;11.60;;;10.40;;
12556;SDS011;6344;49.932;8.308;2022-12-07T02:15:53;13.20;;;10.40;;
12556;SDS011;6344;49.932;8.308;2022-12-07T02:18:40;13.60;;;11.30;;
12556;SDS011;6344;49.932;8.308;2022-12-07T02:21:20;13.90;;;10.00;;
12556;SDS011;6344;49.932;8.308;2022-12-07T02:27:02;12.73;;;10.93;;
12556;SDS011;6344;49.932;8.308;2022-12-07T02:29:42;11.20;;;10.10;;
12556;SDS011;6344;49.932;8.308;2022-12-07T02:32:17;12.33;;;10.30;;
12556;SDS011;6344;49.932;8.308;2022-12-07T02:34:55;12.50;;;10.57;;
12556;SDS011;6344;49.932;8.308;2022-12-07T02:37:28;12.20;;;10.83;;
12556;SDS011;6344;49.932;8.308;2022-12-07T02:40:03;14.77;;;10.00;;
12556;SDS011;6344;49.932;8.308;2022-12-07T02:42:38;12.90;;;10.27;;
12556;SDS011;6344;49.932;8.308;2022-12-07T02:45:11;12.67;;;11.23;;
12556;SDS011;6344;49.932;8.308;2022-12-07T02:47:41;12.17;;;10.60;;
12556;SDS011;6344;49.932;8.308;2022-12-07T02:50:11;13.70;;;10.73;;
12556;SDS011;6344;49.932;8.308;2022-12-07T02:52:41;13.00;;;10.30;;
12556;SDS011;6344;49.932;8.308;2022-12-07T02:55:14;14.20;;;11.17;;
12556;SDS011;6344;49.932;8.308;2022-12-07T02:57:50;13.63;;;10.27;;
12556;SDS011;6344;49.932;8.308;2022-12-07T03:00:36;11.83;;;9.90;;
12556;SDS011;6344;49.932;8.308;2022-12-07T03:03:14;13.73;;;9.53;;
12556;SDS011;6344;49.932;8.308;2022-12-07T03:05:47;11.87;;;9.63;;
12556;SDS011;6344;49.932;8.308;2022-12-07T03:08:33;11.93;;;9.80;;
12556;SDS011;6344;49.932;8.308;2022-12-07T03:11:12;11.07;;;9.87;;
12556;SDS011;6344;49.932;8.308;2022-12-07T03:13:45;7.67;;;6.50;;
12556;SDS011;6344;49.932;8.308;2022-12-07T03:16:17;10.67;;;8.60;;
12556;SDS011;6344;49.932;8.308;2022-12-07T03:18:47;9.87;;;7.87;;
12556;SDS011;6344;49.932;8.308;2022-12-07T03:21:19;11.87;;;9.20;;
12556;SDS011;6344;49.932;8.308;2022-12-07T03:23:54;13.47;;;8.10;;
12556;SDS011;6344;49.932;8.308;2022-12-07T03:26:35;13.20;;;7.70;;
12556;SDS011;6344;49.932;8.308;2022-12-07T03:29:11;9.90;;;7.67;;
12556;SDS011;6344;49.932;8.308;2022-12-07T03:31:50;8.67;;;7.40;;
12556;SDS011;6344;49.932;8.308;2022-12-07T03:34:26;9.70;;;7.90;;
12556;SDS011;6344;49.932;8.308;2022-12-07T03:37:00;9.70;;;8.40;;
12556;SDS011;6344;49.932;8.308;2022-12-07T03:39:33;11.63;;;8.70;;
12556;SDS011;6344;49.932;8.308;2022-12-07T03:42:03;10.90;;;8.67;;
12556;SDS011;6344;49.932;8.308;2022-12-07T03:44:39;11.33;;;8.70;;
12556;SDS011;6344;49.932;8.308;2022-12-07T03:47:11;12.13;;;8.53;;
12556;SDS011;6344;49.932;8.308;2022-12-07T03:49:45;11.20;;;9.00;;
12556;SDS011;6344;49.932;8.308;2022-12-07T03:52:18;10.67;;;8.30;;
12556;SDS011;6344;49.932;8.308;2022-12-07T03:54:54;11.20;;;7.70;;
12556;SDS011;6344;49.932;8.308;2022-12-07T03:57:24;9.23;;;7.93;;
12556;SDS011;6344;49.932;8.308;2022-12-07T03:59:53;8.40;;;7.53;;
12556;SDS011;6344;49.932;8.308;2022-12-07T04:02:22;13.23;;;8.17;;
12556;SDS011;6344;49.932;8.308;2022-12-07T04:04:51;8.43;;;7.43;;
12556;SDS011;6344;49.932;8.308;2022-12-07T04:07:20;9.30;;;8.30;;
12556;SDS011;6344;49.932;8.308;2022-12-07T04:09:51;10.27;;;8.50;;
12556;SDS011;6344;49.932;8.308;2022-12-07T04:12:20;11.13;;;8.53;;
12556;SDS011;6344;49.932;8.308;2022-12-07T04:14:49;11.83;;;8.50;;
12556;SDS011;6344;49.932;8.308;2022-12-07T04:17:22;10.80;;;9.00;;
12556;SDS011;6344;49.932;8.308;2022-12-07T04:19:49;9.27;;;8.37;;
12556;SDS011;6344;49.932;8.308;2022-12-07T04:22:16;8.53;;;7.63;;
12556;SDS011;6344;49.932;8.308;2022-12-07T04:24:45;8.60;;;7.80;;
12556;SDS011;6344;49.932;8.308;2022-12-07T04:27:12;9.63;;;8.10;;
12556;SDS011;6344;49.932;8.308;2022-12-07T04:29:40;10.53;;;9.43;;
12556;SDS011;6344;49.932;8.308;2022-12-07T04:32:08;9.10;;;7.90;;
12556;SDS011;6344;49.932;8.308;2022-12-07T04:34:38;10.50;;;8.40;;
12556;SDS011;6344;49.932;8.308;2022-12-07T04:37:05;8.20;;;5.90;;
12556;SDS011;6344;49.932;8.308;2022-12-07T04:39:33;9.50;;;7.83;;
12556;SDS011;6344;49.932;8.308;2022-12-07T04:42:03;10.60;;;7.60;;
12556;SDS011;6344;49.932;8.308;2022-12-07T04:44:30;14.20;;;9.60;;
12556;SDS011;6344;49.932;8.308;2022-12-07T04:46:57;11.13;;;7.40;;
12556;SDS011;6344;49.932;8.308;2022-12-07T04:49:25;13.10;;;9.37;;
12556;SDS011;6344;49.932;8.308;2022-12-07T04:51:55;11.10;;;8.50;;
12556;SDS011;6344;49.932;8.308;2022-12-07T04:54:24;10.57;;;9.47;;
12556;SDS011;6344;49.932;8.308;2022-12-07T04:56:58;8.33;;;7.00;;
12556;SDS011;6344;49.932;8.308;2022-12-07T04:59:25;12.80;;;10.43;;
12556;SDS011;6344;49.932;8.308;2022-12-07T05:01:52;11.00;;;8.50;;
12556;SDS011;6344;49.932;8.308;2022-12-07T05:04:19;12.07;;;9.83;;
12556;SDS011;6344;49.932;8.308;2022-12-07T05:06:45;10.00;;;8.30;;
12556;SDS011;6344;49.932;8.308;2022-12-07T05:09:13;9.90;;;8.20;;
12556;SDS011;6344;49.932;8.308;2022-12-07T05:11:43;11.13;;;10.03;;
12556;SDS011;6344;49.932;8.308;2022-12-07T05:14:12;11.23;;;9.20;;
12556;SDS011;6344;49.932;8.308;2022-12-07T05:16:50;11.23;;;10.00;;
12556;SDS011;6344;49.932;8.308;2022-12-07T05:19:19;10.40;;;8.73;;
12556;SDS011;6344;49.932;8.308;2022-12-07T05:21:48;11.20;;;10.00;;
12556;SDS011;6344;49.932;8.308;2022-12-07T05:24:17;13.00;;;10.07;;
12556;SDS011;6344;49.932;8.308;2022-12-07T05:26:47;15.87;;;11.00;;
12556;SDS011;6344;49.932;8.308;2022-12-07T05:29:16;9.83;;;8.00;;
12556;SDS011;6344;49.932;8.308;2022-12-07T05:31:44;14.73;;;11.17;;
12556;SDS011;6344;49.932;8.308;2022-12-07T05:34:13;16.90;;;10.90;;
12556;SDS011;6344;49.932;8.308;2022-12-07T05:36:41;11.50;;;10.30;;
12556;SDS011;6344;49.932;8.308;2022-12-07T05:39:14;14.67;;;10.77;;
12556;SDS011;6344;49.932;8.308;2022-12-07T05:41:42;11.13;;;9.27;;
12556;SDS011;6344;49.932;8.308;2022-12-07T05:44:33;13.07;;;10.40;;
12556;SDS011;6344;49.932;8.308;2022-12-07T05:47:00;12.10;;;10.80;;
12556;SDS011;6344;49.932;8.308;2022-12-07T05:49:29;8.27;;;6.80;;
12556;SDS011;6344;49.932;8.308;2022-12-07T05:51:58;12.30;;;9.87;;
12556;SDS011;6344;49.932;8.308;2022-12-07T05:54:24;16.27;;;12.27;;
12556;SDS011;6344;49.932;8.308;2022-12-07T05:56:56;11.03;;;9.83;;
12556;SDS011;6344;49.932;8.308;2022-12-07T05:59:27;11.40;;;8.90;;
12556;SDS011;6344;49.932;8.308;2022-12-07T06:01:54;12.73;;;11.17;;
12556;SDS011;6344;49.932;8.308;2022-12-07T06:04:24;13.03;;;10.60;;
12556;SDS011;6344;49.932;8.308;2022-12-07T06:06:56;11.10;;;9.60;;
12556;SDS011;6344;49.932;8.308;2022-12-07T06:09:24;14.07;;;10.50;;
12556;SDS011;6344;49.932;8.308;2022-12-07T06:11:52;12.40;;;10.50;;
12556;SDS011;6344;49.932;8.308;2022-12-07T06:14:38;14.90;;;12.20;;
12556;SDS011;6344;49.932;8.308;2022-12-07T06:17:07;14.03;;;10.80;;
12556;SDS011;6344;49.932;8.308;2022-12-07T06:19:34;15.50;;;12.60;;
12556;SDS011;6344;49.932;8.308;2022-12-07T06:22:05;14.47;;;11.60;;
12556;SDS011;6344;49.932;8.308;2022-12-07T06:24:32;15.93;;;11.20;;
12556;SDS011;6344;49.932;8.308;2022-12-07T06:26:59;13.40;;;11.30;;
12556;SDS011;6344;49.932;8.308;2022-12-07T06:29:31;14.27;;;11.63;;
12556;SDS011;6344;49.932;8.308;2022-12-07T06:31:59;14.07;;;11.60;;
12556;SDS011;6344;49.932;8.308;2022-12-07T06:34:30;15.80;;;12.87;;
12556;SDS011;6344;49.932;8.308;2022-12-07T06:36:57;13.33;;;11.60;;
12556;SDS011;6344;49.932;8.308;2022-12-07T06:39:43;18.30;;;12.80;;
12556;SDS011;6344;49.932;8.308;2022-12-07T06:42:14;12.63;;;10.33;;
12556;SDS011;6344;49.932;8.308;2022-12-07T06:44:43;14.60;;;12.00;;
12556;SDS011;6344;49.932;8.308;2022-12-07T06:47:11;14.90;;;12.37;;
12556;SDS011;6344;49.932;8.308;2022-12-07T06:49:40;8.83;;;7.13;;
12556;SDS011;6344;49.932;8.308;2022-12-07T06:52:08;17.30;;;12.40;;
12556;SDS011;6344;49.932;8.308;2022-12-07T06:54:35;18.63;;;13.17;;
12556;SDS011;6344;49.932;8.308;2022-12-07T06:57:11;17.20;;;13.20;;
12556;SDS011;6344;49.932;8.308;2022-12-07T06:59:43;14.37;;;10.60;;
12556;SDS011;6344;49.932;8.308;2022-12-07T07:02:15;16.20;;;13.57;;
12556;SDS011;6344;49.932;8.308;2022-12-07T07:04:48;17.27;;;13.27;;
12556;SDS011;6344;49.932;8.308;2022-12-07T07:07:15;17.97;;;14.23;;
12556;SDS011;6344;49.932;8.308;2022-12-07T07:09:43;18.23;;;13.23;;
12556;SDS011;6344;49.932;8.308;2022-12-07T07:12:12;15.10;;;11.87;;
12556;SDS011;6344;49.932;8.308;2022-12-07T07:14:38;13.07;;;11.03;;
12556;SDS011;6344;49.932;8.308;2022-12-07T07:17:18;18.23;;;14.33;;
12556;SDS011;6344;49.932;8.308;2022-12-07T07:19:50;17.17;;;13.73;;
12556;SDS011;6344;49.932;8.308;2022-12-07T07:22:19;14.87;;;11.63;;
12556;SDS011;6344;49.932;8.308;2022-12-07T07:24:46;16.20;;;12.77;;
12556;SDS011;6344;49.932;8.308;2022-12-07T07:27:16;17.10;;;13.60;;
12556;SDS011;6344;49.932;8.308;2022-12-07T07:29:45;21.67;;;12.20;;
12556;SDS011;6344;49.932;8.308;2022-12-07T07:32:13;19.47;;;14.70;;
12556;SDS011;6344;49.932;8.308;2022-12-07T07:34:42;16.37;;;13.17;;
12556;SDS011;6344;49.932;8.308;2022-12-07T07:37:09;15.53;;;12.70;;
12556;SDS011;6344;49.932;8.308;2022-12-07T07:39:50;16.90;;;14.40;;
12556;SDS011;6344;49.932;8.308;2022-12-07T07:42:18;15.27;;;12.40;;
12556;SDS011;6344;49.932;8.308;2022-12-07T07:44:45;17.80;;;13.30;;
12556;SDS011;6344;49.932;8.308;2022-12-07T07:47:11;15.40;;;13.73;;
12556;SDS011;6344;49.932;8.308;2022-12-07T07:49:40;15.80;;;11.70;;
12556;SDS011;6344;49.932;8.308;2022-12-07T07:52:09;14.00;;;10.43;;
12556;SDS011;6344;49.932;8.308;2022-12-07T07:54:36;18.70;;;12.90;;
12556;SDS011;6344;49.932;8.308;2022-12-07T07:57:05;18.20;;;13.80;;
12556;SDS011;6344;49.932;8.308;2022-12-07T07:59:32;16.23;;;10.07;;
12556;SDS011;6344;49.932;8.308;2022-12-07T08:02:00;14.40;;;11.93;;
12556;SDS011;6344;49.932;8.308;2022-12-07T08:04:29;17.37;;;11.20;;
12556;SDS011;6344;49.932;8.308;2022-12-07T08:06:56;17.93;;;11.33;;
12556;SDS011;6344;49.932;8.308;2022-12-07T08:09:27;14.60;;;12.50;;
12556;SDS011;6344;49.932;8.308;2022-12-07T08:11:53;15.90;;;12.30;;
12556;SDS011;6344;49.932;8.308;2022-12-07T08:14:20;14.77;;;10.37;;
12556;SDS011;6344;49.932;8.308;2022-12-07T08:16:48;15.83;;;12.27;;
12556;SDS011;6344;49.932;8.308;2022-12-07T08:19:17;15.20;;;11.30;;
12556;SDS011;6344;49.932;8.308;2022-12-07T08:21:46;15.20;;;11.43;;
12556;SDS011;6344;49.932;8.308;2022-12-07T08:24:13;18.67;;;14.10;;
12556;SDS011;6344;49.932;8.308;2022-12-07T08:26:44;16.80;;;14.47;;
12556;SDS011;6344;49.932;8.308;2022-12-07T08:29:15;14.33;;;12.47;;
12556;SDS011;6344;49.932;8.308;2022-12-07T08:31:46;13.47;;;12.07;;
12556;SDS011;6344;49.932;8.308;2022-12-07T08:34:14;19.73;;;12.57;;
12556;SDS011;6344;49.932;8.308;2022-12-07T08:36:41;18.80;;;12.80;;
12556;SDS011;6344;49.932;8.308;2022-12-07T08:39:09;14.80;;;11.70;;
12556;SDS011;6344;49.932;8.308;2022-12-07T08:41:36;19.27;;;14.53;;
12556;SDS011;6344;49.932;8.308;2022-12-07T08:44:04;14.47;;;11.77;;
12556;SDS011;6344;49.932;8.308;2022-12-07T08:46:35;14.77;;;12.87;;
12556;SDS011;6344;49.932;8.308;2022-12-07T08:49:05;16.70;;;12.17;;
12556;SDS011;6344;49.932;8.308;2022-12-07T08:51:34;14.43;;;11.67;;
12556;SDS011;6344;49.932;8.308;2022-12-07T08:54:04;17.23;;;14.03;;
12556;SDS011;6344;49.932;8.308;2022-12-07T08:56:40;12.17;;;10.20;;
12556;SDS011;6344;49.932;8.308;2022-12-07T08:59:11;13.67;;;10.57;;
12556;SDS011;6344;49.932;8.308;2022-12-07T09:01:43;16.50;;;11.87;;
12556;SDS011;6344;49.932;8.308;2022-12-07T09:04:10;14.47;;;11.63;;
12556;SDS011;6344;49.932;8.308;2022-12-07T09:06:42;14.43;;;12.50;;
12556;SDS011;6344;49.932;8.308;2022-12-07T09:09:10;15.67;;;13.37;;
12556;SDS011;6344;49.932;8.308;2022-12-07T09:11:41;11.33;;;9.13;;
12556;SDS011;6344;49.932;8.308;2022-12-07T09:14:13;12.83;;;9.93;;
12556;SDS011;6344;49.932;8.308;2022-12-07T09:16:43;14.27;;;12.77;;
12556;SDS011;6344;49.932;8.308;2022-12-07T09:19:10;14.43;;;12.60;;
12556;SDS011;6344;49.932;8.308;2022-12-07T09:21:39;12.23;;;10.20;;
12556;SDS011;6344;49.932;8.308;2022-12-07T09:24:06;11.47;;;9.10;;
12556;SDS011;6344;49.932;8.308;2022-12-07T09:26:34;21.07;;;12.27;;
12556;SDS011;6344;49.932;8.308;2022-12-07T09:29:01;15.20;;;11.93;;
12556;SDS011;6344;49.932;8.308;2022-12-07T09:31:30;13.43;;;10.47;;
12556;SDS011;6344;49.932;8.308;2022-12-07T09:33:56;18.33;;;14.37;;
12556;SDS011;6344;49.932;8.308;2022-12-07T09:36:24;15.00;;;12.00;;
12556;SDS011;6344;49.932;8.308;2022-12-07T09:38:51;17.07;;;12.97;;
12556;SDS011;6344;49.932;8.308;2022-12-07T09:41:20;15.40;;;13.07;;
12556;SDS011;6344;49.932;8.308;2022-12-07T09:43:48;17.23;;;14.93;;
12556;SDS011;6344;49.932;8.308;2022-12-07T09:46:16;18.70;;;15.63;;
12556;SDS011;6344;49.932;8.308;2022-12-07T09:48:45;16.03;;;14.33;;
12556;SDS011;6344;49.932;8.308;2022-12-07T09:51:16;19.40;;;13.70;;
12556;SDS011;6344;49.932;8.308;2022-12-07T09:53:48;14.63;;;11.07;;
12556;SDS011;6344;49.932;8.308;2022-12-07T09:56:17;13.47;;;10.43;;
12556;SDS011;6344;49.932;8.308;2022-12-07T09:58:49;11.90;;;9.63;;
12556;SDS011;6344;49.932;8.308;2022-12-07T10:01:29;14.70;;;10.50;;
12556;SDS011;6344;49.932;8.308;2022-12-07T10:04:00;13.20;;;11.43;;
12556;SDS011;6344;49.932;8.308;2022-12-07T10:06:37;12.90;;;10.80;;
12556;SDS011;6344;49.932;8.308;2022-12-07T10:09:10;12.37;;;10.63;;
12556;SDS011;6344;49.932;8.308;2022-12-07T10:14:30;11.23;;;10.10;;
12556;SDS011;6344;49.932;8.308;2022-12-07T10:17:27;10.13;;;9.13;;
12556;SDS011;6344;49.932;8.308;2022-12-07T10:20:11;11.67;;;8.67;;
12556;SDS011;6344;49.932;8.308;2022-12-07T10:22:58;11.50;;;10.20;;
12556;SDS011;6344;49.932;8.308;2022-12-07T10:25:31;10.83;;;9.73;;
12556;SDS011;6344;49.932;8.308;2022-12-07T10:28:12;10.63;;;8.77;;
12556;SDS011;6344;49.932;8.308;2022-12-07T10:30:47;14.30;;;12.83;;
12556;SDS011;6344;49.932;8.308;2022-12-07T10:33:26;11.90;;;10.70;;
12556;SDS011;6344;49.932;8.308;2022-12-07T10:35:59;8.30;;;7.40;;
12556;SDS011;6344;49.932;8.308;2022-12-07T10:38:43;9.27;;;5.27;;
12556;SDS011;6344;49.932;8.308;2022-12-07T10:41:11;6.93;;;5.90;;
12556;SDS011;6344;49.932;8.308;2022-12-07T10:43:46;6.43;;;5.03;;
12556;SDS011;6344;49.932;8.308;2022-12-07T10:52:42;4.40;;;3.67;;
12556;SDS011;6344;49.932;8.308;2022-12-07T10:55:23;4.40;;;3.20;;
12556;SDS011;6344;49.932;8.308;2022-12-07T10:58:06;4.73;;;2.60;;
12556;SDS011;6344;49.932;8.308;2022-12-07T11:00:51;7.37;;;4.60;;
12556;SDS011;6344;49.932;8.308;2022-12-07T11:03:29;4.03;;;3.53;;
12556;SDS011;6344;49.932;8.308;2022-12-07T11:06:13;7.73;;;5.53;;
12556;SDS011;6344;49.932;8.308;2022-12-07T11:08:57;6.20;;;5.60;;
12556;SDS011;6344;49.932;8.308;2022-12-07T11:11:43;7.00;;;5.53;;
12556;SDS011;6344;49.932;8.308;2022-12-07T11:14:19;5.50;;;4.00;;
12556;SDS011;6344;49.932;8.308;2022-12-07T11:16:56;5.57;;;3.60;;
12556;SDS011;6344;49.932;8.308;2022-12-07T11:19:34;4.07;;;3.20;;
12556;SDS011;6344;49.932;8.308;2022-12-07T11:22:16;3.77;;;2.53;;
12556;SDS011;6344;49.932;8.308;2022-12-07T11:24:53;7.33;;;2.80;;
12556;SDS011;6344;49.932;8.308;2022-12-07T11:27:31;2.33;;;2.13;;
12556;SDS011;6344;49.932;8.308;2022-12-07T11:30:13;3.27;;;2.87;;
12556;SDS011;6344;49.932;8.308;2022-12-07T11:32:53;3.10;;;2.50;;
12556;SDS011;6344;49.932;8.308;2022-12-07T11:35:34;4.03;;;3.20;;
12556;SDS011;6344;49.932;8.308;2022-12-07T11:38:10;3.93;;;3.20;;
12556;SDS011;6344;49.932;8.308;2022-12-07T11:40:42;5.33;;;3.70;;
12556;SDS011;6344;49.932;8.308;2022-12-07T11:43:17;7.37;;;3.90;;
12556;SDS011;6344;49.932;8.308;2022-12-07T11:45:52;3.40;;;3.00;;
12556;SDS011;6344;49.932;8.308;2022-12-07T11:48:24;3.60;;;2.50;;
12556;SDS011;6344;49.932;8.308;2022-12-07T11:50:59;7.20;;;3.13;;
12556;SDS011;6344;49.932;8.308;2022-12-07T11:53:31;3.60;;;3.17;;
12556;SDS011;6344;49.932;8.308;2022-12-07T11:56:06;3.00;;;2.70;;
12556;SDS011;6344;49.932;8.308;2022-12-07T11:58:42;5.60;;;3.00;;
12556;SDS011;6344;49.932;8.308;2022-12-07T12:01:15;2.80;;;2.53;;
12556;SDS011;6344;49.932;8.308;2022-12-07T12:03:56;4.63;;;2.90;;
12556;SDS011;6344;49.932;8.308;2022-12-07T12:06:27;3.93;;;2.80;;
12556;SDS011;6344;49.932;8.308;2022-12-07T12:08:58;4.50;;;2.70;;
12556;SDS011;6344;49.932;8.308;2022-12-07T12:11:37;2.93;;;2.33;;
12556;SDS011;6344;49.932;8.308;2022-12-07T12:14:28;3.30;;;2.33;;
12556;SDS011;6344;49.932;8.308;2022-12-07T12:17:09;2.83;;;2.30;;
12556;SDS011;6344;49.932;8.308;2022-12-07T12:19:57;3.27;;;2.23;;
12556;SDS011;6344;49.932;8.308;2022-12-07T12:22:33;2.67;;;2.30;;
12556;SDS011;6344;49.932;8.308;2022-12-07T12:25:05;3.77;;;2.63;;
12556;SDS011;6344;49.932;8.308;2022-12-07T12:27:35;3.70;;;2.57;;
12556;SDS011;6344;49.932;8.308;2022-12-07T12:30:05;4.53;;;2.23;;
12556;SDS011;6344;49.932;8.308;2022-12-07T12:32:40;1.97;;;1.77;;
12556;SDS011;6344;49.932;8.308;2022-12-07T12:35:22;2.80;;;1.47;;
12556;SDS011;6344;49.932;8.308;2022-12-07T12:38:01;2.53;;;1.90;;
12556;SDS011;6344;49.932;8.308;2022-12-07T12:40:59;3.47;;;2.90;;
12556;SDS011;6344;49.932;8.308;2022-12-07T12:43:52;2.70;;;2.30;;
12556;SDS011;6344;49.932;8.308;2022-12-07T12:49:34;1.70;;;1.43;;
12556;SDS011;6344;49.932;8.308;2022-12-07T12:55:16;5.93;;;2.73;;
12556;SDS011;6344;49.932;8.308;2022-12-07T13:04:23;7.73;;;4.27;;
12556;SDS011;6344;49.932;8.308;2022-12-07T13:06:56;6.37;;;2.77;;
12556;SDS011;6344;49.932;8.308;2022-12-07T13:09:24;5.03;;;2.50;;
12556;SDS011;6344;49.932;8.308;2022-12-07T13:11:58;2.47;;;2.27;;
12556;SDS011;6344;49.932;8.308;2022-12-07T13:14:51;2.33;;;2.13;;
12556;SDS011;6344;49.932;8.308;2022-12-07T13:20:45;4.30;;;2.10;;
12556;SDS011;6344;49.932;8.308;2022-12-07T13:23:16;4.60;;;2.67;;
12556;SDS011;6344;49.932;8.308;2022-12-07T13:25:51;3.47;;;2.50;;
12556;SDS011;6344;49.932;8.308;2022-12-07T13:28:22;2.90;;;2.40;;
12556;SDS011;6344;49.932;8.308;2022-12-07T13:31:00;7.13;;;6.43;;
12556;SDS011;6344;49.932;8.308;2022-12-07T13:33:44;5.00;;;2.50;;
12556;SDS011;6344;49.932;8.308;2022-12-07T13:36:19;2.50;;;2.20;;
12556;SDS011;6344;49.932;8.308;2022-12-07T13:38:52;2.83;;;2.53;;
12556;SDS011;6344;49.932;8.308;2022-12-07T13:41:21;3.83;;;2.50;;
12556;SDS011;6344;49.932;8.308;2022-12-07T13:44:02;2.37;;;2.17;;
12556;SDS011;6344;49.932;8.308;2022-12-07T13:46:40;3.80;;;2.00;;
12556;SDS011;6344;49.932;8.308;2022-12-07T13:49:21;4.43;;;2.33;;
12556;SDS011;6344;49.932;8.308;2022-12-07T13:51:49;2.70;;;2.50;;
12556;SDS011;6344;49.932;8.308;2022-12-07T13:54:22;3.20;;;2.60;;
12556;SDS011;6344;49.932;8.308;2022-12-07T13:56:49;4.27;;;2.10;;
12556;SDS011;6344;49.932;8.308;2022-12-07T13:59:23;2.40;;;2.20;;
12556;SDS011;6344;49.932;8.308;2022-12-07T14:01:51;2.37;;;2.17;;
12556;SDS011;6344;49.932;8.308;2022-12-07T14:04:33;5.30;;;3.17;;
12556;SDS011;6344;49.932;8.308;2022-12-07T14:07:16;4.87;;;3.23;;
12556;SDS011;6344;49.932;8.308;2022-12-07T14:09:53;4.50;;;2.93;;
12556;SDS011;6344;49.932;8.308;2022-12-07T14:12:23;5.17;;;2.07;;
12556;SDS011;6344;49.932;8.308;2022-12-07T14:14:51;2.90;;;2.60;;
12556;SDS011;6344;49.932;8.308;2022-12-07T14:17:23;1.80;;;1.70;;
12556;SDS011;6344;49.932;8.308;2022-12-07T14:19:55;2.77;;;1.73;;
12556;SDS011;6344;49.932;8.308;2022-12-07T14:22:29;3.13;;;2.13;;
12556;SDS011;6344;49.932;8.308;2022-12-07T14:25:01;3.20;;;2.30;;
12556;SDS011;6344;49.932;8.308;2022-12-07T14:27:55;2.47;;;2.10;;
12556;SDS011;6344;49.932;8.308;2022-12-07T14:30:24;1.90;;;1.70;;
12556;SDS011;6344;49.932;8.308;2022-12-07T14:32:53;1.73;;;1.37;;
12556;SDS011;6344;49.932;8.308;2022-12-07T14:35:24;2.10;;;1.87;;
12556;SDS011;6344;49.932;8.308;2022-12-07T14:37:51;3.43;;;2.83;;
12556;SDS011;6344;49.932;8.308;2022-12-07T14:40:18;3.43;;;2.47;;
12556;SDS011;6344;49.932;8.308;2022-12-07T14:42:50;2.53;;;2.33;;
12556;SDS011;6344;49.932;8.308;2022-12-07T14:45:24;4.40;;;4.00;;
12556;SDS011;6344;49.932;8.308;2022-12-07T14:47:54;4.17;;;3.50;;
12556;SDS011;6344;49.932;8.308;2022-12-07T14:50:21;7.40;;;4.97;;
12556;SDS011;6344;49.932;8.308;2022-12-07T14:52:49;4.93;;;4.00;;
12556;SDS011;6344;49.932;8.308;2022-12-07T14:55:25;5.03;;;3.70;;
12556;SDS011;6344;49.932;8.308;2022-12-07T14:57:52;5.77;;;4.23;;
12556;SDS011;6344;49.932;8.308;2022-12-07T15:00:21;4.20;;;3.67;;
12556;SDS011;6344;49.932;8.308;2022-12-07T15:02:51;3.53;;;2.00;;
12556;SDS011;6344;49.932;8.308;2022-12-07T15:05:23;8.00;;;3.13;;
12556;SDS011;6344;49.932;8.308;2022-12-07T15:07:51;2.53;;;2.27;;
12556;SDS011;6344;49.932;8.308;2022-12-07T15:10:21;2.30;;;2.10;;
12556;SDS011;6344;49.932;8.308;2022-12-07T15:12:56;3.43;;;1.87;;
12556;SDS011;6344;49.932;8.308;2022-12-07T15:15:44;3.63;;;2.20;;
12556;SDS011;6344;49.932;8.308;2022-12-07T15:18:12;2.90;;;2.03;;
12556;SDS011;6344;49.932;8.308;2022-12-07T15:20:41;5.10;;;2.50;;
12556;SDS011;6344;49.932;8.308;2022-12-07T15:23:11;3.90;;;2.60;;
12556;SDS011;6344;49.932;8.308;2022-12-07T15:25:42;8.43;;;4.80;;
12556;SDS011;6344;49.932;8.308;2022-12-07T15:28:11;5.30;;;3.90;;
12556;SDS011;6344;49.932;8.308;2022-12-07T15:30:38;5.30;;;3.10;;
12556;SDS011;6344;49.932;8.308;2022-12-07T15:33:07;5.83;;;3.07;;
12556;SDS011;6344;49.932;8.308;2022-12-07T15:35:33;3.73;;;3.30;;
12556;SDS011;6344;49.932;8.308;2022-12-07T15:38:04;12.13;;;10.90;;
12556;SDS011;6344;49.932;8.308;2022-12-07T15:40:32;9.60;;;8.80;;
12556;SDS011;6344;49.932;8.308;2022-12-07T15:43:01;9.73;;;9.00;;
12556;SDS011;6344;49.932;8.308;2022-12-07T15:45:49;12.37;;;10.80;;
12556;SDS011;6344;49.932;8.308;2022-12-07T15:48:15;13.27;;;12.27;;